createdAt,value
2022-12-08T00:01:15.257Z,30.08
2022-12-08T00:03:42.966Z,30.85
2022-12-08T00:06:59.814Z,29.02
2022-12-08T00:09:39.659Z,27.85
2022-12-08T00:12:10.156Z,21.83
2022-12-08T00:14:42.376Z,27.20
2022-12-08T00:17:12.168Z,29.52
2022-12-08T00:19:39.829Z,27.67
2022-12-08T00:22:08.296Z,27.08
2022-12-08T00:24:39.563Z,24.67
2022-12-08T00:27:09.223Z,26.60
2022-12-08T00:29:36.015Z,27.20
2022-12-08T00:32:02.800Z,26.55
2022-12-08T00:34:30.598Z,25.83
2022-12-08T00:36:57.303Z,28.63
2022-12-08T00:39:24.209Z,28.15
2022-12-08T00:42:09.638Z,25.20
2022-12-08T00:44:36.490Z,24.83
2022-12-08T00:47:07.327Z,21.50
2022-12-08T00:49:34.442Z,22.27
2022-12-08T00:52:02.211Z,21.23
2022-12-08T00:54:28.965Z,19.00
2022-12-08T00:56:56.588Z,19.90
2022-12-08T00:59:23.254Z,18.77
2022-12-08T01:01:50.199Z,19.27
2022-12-08T01:04:21.867Z,19.65
2022-12-08T01:06:48.851Z,18.73
2022-12-08T01:09:17.414Z,19.45
2022-12-08T01:11:44.951Z,18.50
2022-12-08T01:14:13.015Z,18.77
2022-12-08T01:16:41.432Z,21.70
2022-12-08T01:19:11.089Z,18.17
2022-12-08T01:21:37.827Z,18.80
2022-12-08T01:24:04.871Z,19.80
2022-12-08T01:26:31.603Z,22.33
2022-12-08T01:28:59.463Z,21.15
2022-12-08T01:31:26.259Z,21.25
2022-12-08T01:33:53.364Z,21.55
2022-12-08T01:36:28.833Z,21.17
2022-12-08T01:38:58.563Z,21.88
2022-12-08T01:41:28.282Z,21.03
2022-12-08T01:44:00.814Z,22.03
2022-12-08T01:46:32.718Z,21.77
2022-12-08T01:49:08.257Z,20.98
2022-12-08T01:51:42.625Z,19.35
2022-12-08T01:54:12.595Z,17.23
2022-12-08T01:56:45.456Z,17.70
2022-12-08T01:59:12.492Z,17.48
2022-12-08T02:01:39.447Z,17.77
2022-12-08T02:04:13.634Z,16.95
2022-12-08T02:06:43.457Z,18.38
2022-12-08T02:09:10.638Z,18.88
2022-12-08T02:11:37.521Z,19.20
2022-12-08T02:14:07.143Z,16.48
2022-12-08T02:17:04.865Z,18.20
2022-12-08T02:19:49.614Z,17.98
2022-12-08T02:22:25.146Z,16.13
2022-12-08T02:25:01.285Z,17.33
2022-12-08T02:27:44.120Z,16.30
2022-12-08T02:30:29.663Z,17.20
2022-12-08T02:33:12.660Z,17.45
2022-12-08T02:35:43.721Z,17.23
2022-12-08T02:38:45.106Z,17.77
2022-12-08T02:41:28.831Z,16.05
2022-12-08T02:44:15.359Z,16.45
2022-12-08T02:46:58.103Z,15.70
2022-12-08T02:49:32.905Z,15.30
2022-12-08T02:52:14.108Z,14.48
2022-12-08T02:54:45.922Z,13.77
2022-12-08T02:57:30.683Z,14.57
2022-12-08T03:00:15.789Z,14.10
2022-12-08T03:03:14.607Z,13.40
2022-12-08T03:05:55.919Z,13.65
2022-12-08T03:08:41.722Z,14.77
2022-12-08T03:11:20.801Z,15.65
2022-12-08T03:13:55.570Z,14.88
2022-12-08T03:16:27.508Z,16.05
2022-12-08T03:19:10.361Z,17.73
2022-12-08T03:21:38.696Z,17.20
2022-12-08T03:24:08.858Z,17.27
2022-12-08T03:26:48.450Z,16.98
2022-12-08T03:29:15.525Z,18.08
2022-12-08T03:31:49.438Z,19.38
2022-12-08T03:34:17.344Z,19.23
2022-12-08T03:36:45.437Z,19.40
2022-12-08T03:39:12.275Z,19.27
2022-12-08T03:41:39.028Z,18.42
2022-12-08T03:44:05.815Z,17.98
2022-12-08T03:46:32.602Z,19.08
2022-12-08T03:48:59.255Z,20.20
2022-12-08T03:51:27.503Z,19.40
2022-12-08T03:53:54.272Z,21.48
2022-12-08T03:56:36.833Z,20.95
2022-12-08T03:59:04.706Z,21.08
2022-12-08T04:01:31.804Z,22.27
2022-12-08T04:03:58.579Z,21.73
2022-12-08T04:06:25.544Z,19.80
2022-12-08T04:08:52.574Z,20.67
2022-12-08T04:11:19.687Z,21.20
2022-12-08T04:13:46.668Z,22.63
2022-12-08T04:16:20.618Z,23.20
2022-12-08T04:18:48.839Z,24.38
2022-12-08T04:21:15.789Z,22.33
2022-12-08T04:23:43.136Z,22.50
2022-12-08T04:26:12.742Z,22.17
2022-12-08T04:28:39.496Z,22.55
2022-12-08T04:31:06.749Z,23.08
2022-12-08T04:33:35.099Z,22.83
2022-12-08T04:36:04.838Z,23.73
2022-12-08T04:38:31.891Z,22.43
2022-12-08T04:40:58.789Z,22.98
2022-12-08T04:43:25.720Z,22.60
2022-12-08T04:45:52.480Z,21.92
2022-12-08T04:48:19.444Z,22.23
2022-12-08T04:50:46.301Z,22.65
2022-12-08T04:53:13.477Z,22.15
2022-12-08T04:55:43.445Z,21.20
2022-12-08T04:58:18.352Z,22.35
2022-12-08T05:00:47.354Z,22.27
2022-12-08T05:03:15.079Z,21.40
2022-12-08T05:05:43.261Z,22.30
2022-12-08T05:08:11.079Z,23.02
2022-12-08T05:10:38.718Z,23.40
2022-12-08T05:13:05.474Z,23.13
2022-12-08T05:15:32.274Z,30.20
2022-12-08T05:17:58.980Z,30.02
2022-12-08T05:20:25.704Z,29.63
2022-12-08T05:22:55.253Z,27.92
2022-12-08T05:25:21.957Z,28.70
2022-12-08T05:27:48.716Z,29.08
2022-12-08T05:30:17.073Z,24.63
2022-12-08T05:32:43.910Z,27.27
2022-12-08T05:35:11.584Z,24.45
2022-12-08T05:37:38.299Z,22.67
2022-12-08T05:40:06.202Z,24.60
2022-12-08T05:42:33.360Z,26.13
2022-12-08T05:45:00.143Z,23.85
2022-12-08T05:47:28.155Z,22.52
2022-12-08T05:49:57.354Z,23.30
2022-12-08T05:52:31.343Z,23.80
2022-12-08T05:54:58.048Z,23.25
2022-12-08T05:57:24.702Z,22.38
2022-12-08T05:59:51.659Z,22.80
2022-12-08T06:02:18.642Z,22.15
2022-12-08T06:04:45.474Z,22.60
2022-12-08T06:07:16.048Z,22.65
2022-12-08T06:09:43.298Z,23.17
2022-12-08T06:12:12.175Z,22.25
2022-12-08T06:14:39.783Z,20.92
2022-12-08T06:17:08.807Z,20.55
2022-12-08T06:19:35.577Z,20.35
2022-12-08T06:22:03.793Z,22.48
2022-12-08T06:24:30.499Z,22.58
2022-12-08T06:26:57.503Z,21.60
2022-12-08T06:29:24.276Z,24.02
2022-12-08T06:31:52.327Z,23.27
2022-12-08T06:34:19.156Z,29.30
2022-12-08T06:36:45.851Z,29.58
2022-12-08T06:39:12.600Z,28.15
2022-12-08T06:41:59.248Z,31.55
2022-12-08T06:44:26.022Z,33.55
2022-12-08T06:46:52.748Z,32.35
2022-12-08T06:49:19.471Z,30.70
2022-12-08T06:51:46.355Z,36.90
2022-12-08T06:54:13.016Z,31.38
2022-12-08T06:56:41.264Z,30.88
2022-12-08T06:59:07.915Z,29.55
2022-12-08T07:01:34.667Z,28.63
2022-12-08T07:04:01.422Z,28.55
2022-12-08T07:06:28.395Z,29.35
2022-12-08T07:08:55.167Z,28.55
2022-12-08T07:11:22.824Z,28.00
2022-12-08T07:13:50.113Z,28.50
2022-12-08T07:16:16.865Z,25.30
2022-12-08T07:18:44.143Z,27.00
2022-12-08T07:21:14.833Z,25.08
2022-12-08T07:26:10.461Z,26.50
2022-12-08T07:28:38.944Z,29.08
2022-12-08T07:31:06.662Z,27.67
2022-12-08T07:33:34.538Z,28.27
2022-12-08T07:36:03.642Z,29.05
2022-12-08T07:38:31.038Z,25.45
2022-12-08T07:40:57.754Z,24.38
2022-12-08T07:43:24.555Z,21.80
2022-12-08T07:45:51.734Z,19.67
2022-12-08T07:48:18.655Z,19.77
2022-12-08T07:50:46.044Z,21.50
2022-12-08T07:53:13.006Z,19.92
2022-12-08T07:55:44.140Z,20.90
2022-12-08T07:58:11.727Z,23.13
2022-12-08T08:00:38.624Z,23.55
2022-12-08T08:03:06.215Z,22.48
2022-12-08T08:05:33.099Z,22.35
2022-12-08T08:07:59.820Z,21.02
2022-12-08T08:10:26.751Z,21.50
2022-12-08T08:12:53.643Z,21.92
2022-12-08T08:15:21.237Z,22.13
2022-12-08T08:17:51.523Z,23.15
2022-12-08T08:20:19.192Z,20.02
2022-12-08T08:22:47.487Z,21.80
2022-12-08T08:25:15.281Z,21.70
2022-12-08T08:27:42.767Z,19.88
2022-12-08T08:30:16.579Z,18.48
2022-12-08T08:32:45.142Z,19.60
2022-12-08T08:35:14.158Z,17.35
2022-12-08T08:37:44.333Z,19.15
2022-12-08T08:40:15.243Z,18.30
2022-12-08T08:42:41.899Z,15.95
2022-12-08T08:45:08.906Z,16.55
2022-12-08T08:47:35.621Z,16.15
2022-12-08T08:50:02.675Z,17.40
2022-12-08T08:52:30.111Z,16.85
2022-12-08T08:54:56.793Z,16.20
2022-12-08T08:57:25.737Z,16.58
2022-12-08T08:59:53.433Z,16.05
2022-12-08T09:02:21.274Z,17.80
2022-12-08T09:04:48.125Z,16.15
2022-12-08T09:07:15.983Z,15.85
2022-12-08T09:09:42.767Z,14.77
2022-12-08T09:12:10.145Z,15.38
2022-12-08T09:14:36.999Z,15.48
2022-12-08T09:17:03.830Z,17.23
2022-12-08T09:19:30.548Z,14.65
2022-12-08T09:21:57.264Z,14.63
2022-12-08T09:24:24.011Z,15.82
2022-12-08T09:26:53.535Z,15.73
2022-12-08T09:29:20.243Z,14.60
2022-12-08T09:31:47.163Z,14.20
2022-12-08T09:34:16.303Z,14.48
2022-12-08T09:36:47.541Z,13.88
2022-12-08T09:39:16.994Z,13.70
2022-12-08T09:41:50.336Z,15.68
2022-12-08T09:44:29.389Z,16.08
2022-12-08T09:46:57.796Z,15.07
2022-12-08T09:49:40.954Z,14.73
2022-12-08T09:52:21.153Z,15.98
2022-12-08T09:54:49.521Z,13.60
2022-12-08T09:57:19.644Z,14.60
2022-12-08T09:59:52.851Z,14.63
2022-12-08T10:02:26.485Z,13.85
2022-12-08T10:04:56.112Z,12.95
2022-12-08T10:07:46.975Z,13.17
2022-12-08T10:10:29.259Z,13.48
2022-12-08T10:13:26.760Z,13.27
2022-12-08T10:16:35.062Z,12.18
2022-12-08T10:19:13.088Z,11.85
2022-12-08T10:21:40.725Z,10.50
2022-12-08T10:24:32.909Z,10.25
2022-12-08T10:27:00.309Z,9.38
2022-12-08T10:29:35.775Z,9.52
2022-12-08T10:32:16.709Z,8.20
2022-12-08T10:35:01.376Z,7.85
2022-12-08T10:37:28.208Z,7.63
2022-12-08T10:40:02.446Z,7.72
2022-12-08T10:42:39.803Z,8.40
2022-12-08T10:45:09.665Z,8.60
2022-12-08T10:47:42.482Z,9.75
2022-12-08T10:50:20.220Z,8.60
2022-12-08T10:52:56.140Z,8.63
2022-12-08T10:55:23.337Z,8.85
2022-12-08T10:57:50.391Z,8.52
2022-12-08T11:00:25.398Z,10.20
2022-12-08T11:02:59.079Z,9.13
2022-12-08T11:05:36.865Z,9.90
2022-12-08T11:08:08.420Z,9.23
2022-12-08T11:10:42.416Z,10.05
2022-12-08T11:13:19.735Z,11.70
2022-12-08T11:15:46.886Z,11.60
2022-12-08T11:18:38.520Z,12.05
2022-12-08T11:21:16.099Z,12.15
2022-12-08T11:23:46.822Z,11.68
2022-12-08T11:29:00.401Z,10.43
2022-12-08T11:31:43.683Z,11.63
2022-12-08T11:34:21.825Z,13.20
2022-12-08T11:36:49.878Z,12.85
2022-12-08T11:39:16.790Z,12.18
2022-12-08T11:41:45.898Z,10.93
2022-12-08T11:44:36.329Z,11.50
2022-12-08T11:47:13.566Z,12.27
2022-12-08T11:49:42.712Z,12.75
2022-12-08T11:52:29.793Z,11.57
2022-12-08T11:55:16.666Z,12.25
2022-12-08T11:57:44.948Z,12.95
2022-12-08T12:00:16.441Z,11.88
2022-12-08T12:02:48.797Z,11.90
2022-12-08T12:06:05.497Z,11.65
2022-12-08T12:08:17.512Z,12.43
2022-12-08T12:10:47.103Z,12.63
2022-12-08T12:13:25.870Z,12.77
2022-12-08T12:16:14.344Z,12.68
2022-12-08T12:18:51.486Z,12.05
2022-12-08T12:21:30.156Z,11.13
2022-12-08T12:24:05.627Z,10.73
2022-12-08T12:26:37.517Z,10.13
2022-12-08T12:29:04.196Z,11.48
2022-12-08T12:31:53.557Z,10.85
2022-12-08T12:34:34.098Z,10.68
2022-12-08T12:37:05.702Z,11.55
2022-12-08T12:39:55.991Z,11.43
2022-12-08T12:42:44.464Z,10.95
2022-12-08T12:45:17.249Z,12.63
2022-12-08T12:47:54.062Z,11.40
2022-12-08T12:50:35.040Z,11.27
2022-12-08T12:53:10.635Z,11.50
2022-12-08T12:55:46.486Z,10.88
2022-12-08T12:58:27.485Z,11.45
2022-12-08T13:01:12.778Z,11.38
2022-12-08T13:03:49.805Z,12.48
2022-12-08T13:06:38.101Z,12.35
2022-12-08T13:09:06.018Z,13.35
2022-12-08T13:11:48.002Z,13.32
2022-12-08T13:14:36.786Z,13.43
2022-12-08T13:17:09.886Z,16.48
2022-12-08T13:19:38.517Z,17.02
2022-12-08T13:22:44.041Z,21.95
2022-12-08T13:25:46.325Z,14.25
2022-12-08T13:28:15.979Z,13.20
2022-12-08T13:30:50.775Z,14.73
2022-12-08T13:33:32.785Z,15.82
2022-12-08T13:36:22.266Z,14.18
2022-12-08T13:38:54.603Z,11.95
2022-12-08T13:41:26.436Z,11.27
2022-12-08T13:47:25.053Z,10.93
2022-12-08T13:50:55.732Z,11.68
2022-12-08T13:54:35.307Z,11.40
2022-12-08T13:57:00.900Z,10.23
2022-12-08T13:59:33.951Z,13.25
2022-12-08T14:02:27.285Z,14.23
2022-12-08T14:07:42.890Z,11.25
2022-12-08T14:10:26.176Z,11.75
2022-12-08T14:12:59.082Z,9.73
2022-12-08T14:15:26.204Z,11.10
2022-12-08T14:17:55.363Z,11.43
2022-12-08T14:20:29.697Z,11.60
2022-12-08T14:22:57.145Z,11.55
2022-12-08T14:25:25.544Z,11.05
2022-12-08T14:27:59.722Z,11.27
2022-12-08T14:30:30.831Z,12.57
2022-12-08T14:33:04.927Z,11.82
2022-12-08T14:35:37.071Z,10.70
2022-12-08T14:38:09.625Z,11.50
2022-12-08T14:40:37.773Z,11.15
2022-12-08T14:43:10.347Z,10.90
2022-12-08T14:45:43.285Z,10.30
2022-12-08T14:48:36.431Z,11.60
2022-12-08T14:51:16.364Z,11.68
2022-12-08T14:53:59.893Z,11.40
2022-12-08T14:56:38.007Z,10.35
2022-12-08T14:59:15.450Z,10.90
2022-12-08T15:01:43.955Z,10.02
2022-12-08T15:04:14.431Z,10.02
2022-12-08T15:07:06.971Z,11.85
2022-12-08T15:09:45.667Z,11.85
2022-12-08T15:12:12.433Z,9.38
2022-12-08T15:15:01.280Z,10.23
2022-12-08T15:17:44.323Z,10.15
2022-12-08T15:20:39.138Z,10.93
2022-12-08T15:23:06.523Z,9.02
2022-12-08T15:25:33.324Z,9.57
2022-12-08T15:28:02.736Z,10.40
2022-12-08T15:30:30.337Z,10.20
2022-12-08T15:32:57.019Z,11.13
2022-12-08T15:35:23.828Z,11.00
2022-12-08T15:37:53.139Z,11.20
2022-12-08T15:40:22.985Z,11.52
2022-12-08T15:42:50.001Z,12.77
2022-12-08T15:45:17.375Z,12.15
2022-12-08T15:47:44.940Z,12.60
2022-12-08T15:50:18.415Z,15.13
2022-12-08T15:52:45.490Z,14.77
2022-12-08T15:55:17.383Z,16.52
2022-12-08T16:00:57.418Z,15.82
2022-12-08T16:09:21.553Z,20.52
2022-12-08T16:12:09.632Z,19.63
2022-12-08T16:15:48.155Z,20.33
2022-12-08T16:17:27.983Z,20.35
2022-12-08T16:19:55.427Z,20.52
2022-12-08T16:25:20.344Z,20.98
2022-12-08T16:30:37.087Z,17.40
2022-12-08T16:33:04.898Z,18.05
2022-12-08T16:35:31.803Z,15.68
2022-12-08T16:37:58.782Z,15.27
2022-12-08T16:40:25.588Z,14.38
2022-12-08T16:42:52.912Z,14.93
2022-12-08T16:45:22.538Z,15.15
2022-12-08T16:48:00.476Z,16.87
2022-12-08T16:50:33.098Z,15.52
2022-12-08T16:53:05.120Z,17.50
2022-12-08T16:55:33.214Z,18.00
2022-12-08T16:58:00.276Z,35.10
2022-12-08T17:00:29.236Z,52.60
2022-12-08T17:02:59.145Z,37.60
2022-12-08T17:05:26.610Z,28.42
2022-12-08T17:07:54.665Z,28.98
2022-12-08T17:10:26.214Z,29.95
2022-12-08T17:12:53.807Z,30.90
2022-12-08T17:15:23.866Z,34.83
2022-12-08T17:17:51.267Z,38.97
2022-12-08T17:20:22.225Z,38.58
2022-12-08T17:22:49.424Z,32.33
2022-12-08T17:25:17.782Z,38.13
2022-12-08T17:27:44.634Z,39.75
2022-12-08T17:30:15.512Z,41.13
2022-12-08T17:32:43.003Z,37.75
2022-12-08T17:35:10.371Z,36.78
2022-12-08T17:37:37.270Z,36.75
2022-12-08T17:40:04.808Z,34.72
2022-12-08T17:42:32.033Z,34.22
2022-12-08T17:44:58.699Z,28.48
2022-12-08T17:47:25.758Z,32.83
2022-12-08T17:49:52.577Z,35.47
2022-12-08T17:52:19.298Z,42.05
2022-12-08T17:54:47.052Z,42.45
2022-12-08T17:57:13.795Z,34.30
2022-12-08T17:59:40.492Z,32.83
2022-12-08T18:02:10.055Z,32.80
2022-12-08T18:04:36.932Z,31.38
2022-12-08T18:07:04.366Z,30.95
2022-12-08T18:09:31.652Z,31.92
2022-12-08T18:11:59.569Z,30.77
2022-12-08T18:14:27.786Z,34.10
2022-12-08T18:16:56.622Z,36.70
2022-12-08T18:19:23.773Z,40.92
2022-12-08T18:21:51.857Z,41.42
2022-12-08T18:24:23.504Z,45.05
2022-12-08T18:26:52.369Z,40.17
2022-12-08T18:29:20.948Z,39.25
2022-12-08T18:31:48.105Z,39.78
2022-12-08T18:34:14.918Z,40.38
2022-12-08T18:36:41.806Z,42.67
2022-12-08T18:39:22.320Z,38.90
2022-12-08T18:41:49.109Z,39.40
2022-12-08T18:44:15.823Z,41.45
2022-12-08T18:46:42.542Z,41.55
2022-12-08T18:49:12.894Z,35.92
2022-12-08T18:51:39.934Z,32.00
2022-12-08T18:54:06.704Z,31.17
2022-12-08T18:56:35.358Z,36.90
2022-12-08T18:59:08.109Z,30.73
2022-12-08T19:01:37.628Z,32.42
2022-12-08T19:06:54.821Z,34.10
2022-12-08T19:09:22.674Z,28.85
2022-12-08T19:11:49.476Z,28.38
2022-12-08T19:14:16.238Z,27.27
2022-12-08T19:16:43.041Z,28.27
2022-12-08T19:19:09.840Z,27.75
2022-12-08T19:21:44.526Z,27.63
2022-12-08T19:24:13.113Z,26.13
2022-12-08T19:26:40.893Z,28.30
2022-12-08T19:29:07.912Z,27.70
2022-12-08T19:31:34.688Z,27.27
2022-12-08T19:34:01.527Z,26.80
2022-12-08T19:36:31.745Z,27.23
2022-12-08T19:39:17.125Z,26.50
2022-12-08T19:42:02.579Z,27.65
2022-12-08T19:44:48.442Z,28.75
2022-12-08T19:47:15.426Z,29.05
2022-12-08T19:49:42.229Z,26.88
2022-12-08T19:52:09.256Z,30.40
2022-12-08T19:54:36.377Z,31.92
2022-12-08T19:57:03.180Z,31.73
2022-12-08T19:59:30.332Z,30.15
2022-12-08T20:02:00.308Z,26.98
2022-12-08T20:04:28.033Z,27.55
2022-12-08T20:06:56.582Z,27.05
2022-12-08T20:09:24.084Z,28.58
2022-12-08T20:11:54.607Z,28.10
2022-12-08T20:16:50.350Z,25.58
2022-12-08T20:19:17.271Z,27.70
2022-12-08T20:21:44.684Z,25.85
2022-12-08T20:24:11.516Z,27.20
2022-12-08T20:26:38.371Z,30.25
2022-12-08T20:29:05.163Z,28.75
2022-12-08T20:31:33.509Z,25.52
2022-12-08T20:34:01.513Z,24.73
2022-12-08T20:36:28.672Z,25.60
2022-12-08T20:38:55.746Z,26.95
2022-12-08T20:41:23.415Z,24.88
2022-12-08T20:43:51.138Z,25.02
2022-12-08T20:46:19.742Z,24.10
2022-12-08T20:48:46.624Z,25.08
2022-12-08T20:51:17.747Z,24.90
2022-12-08T20:53:44.975Z,26.58
2022-12-08T20:56:20.347Z,26.63
2022-12-08T20:58:47.419Z,27.65
2022-12-08T21:01:16.731Z,25.90
2022-12-08T21:03:50.372Z,27.75
2022-12-08T21:06:22.470Z,26.50
2022-12-08T21:08:49.774Z,27.38
2022-12-08T21:11:28.734Z,27.35
2022-12-08T21:13:55.847Z,26.23
2022-12-08T21:16:22.981Z,27.88
2022-12-08T21:18:50.043Z,25.63
2022-12-08T21:21:17.888Z,26.90
2022-12-08T21:23:45.089Z,25.10
2022-12-08T21:26:14.363Z,31.42
2022-12-08T21:28:41.918Z,31.20
2022-12-08T21:31:10.439Z,30.52
2022-12-08T21:33:45.191Z,32.10
2022-12-08T21:36:14.364Z,28.98
2022-12-08T21:38:42.289Z,28.65
2022-12-08T21:41:37.268Z,30.50
2022-12-08T21:44:06.093Z,29.05
2022-12-08T21:46:33.077Z,27.98
2022-12-08T21:48:59.928Z,25.48
2022-12-08T21:51:27.219Z,27.85
2022-12-08T21:53:54.090Z,28.65
2022-12-08T21:56:21.086Z,28.58
2022-12-08T21:58:47.970Z,27.67
2022-12-08T22:01:14.986Z,28.10
2022-12-08T22:03:42.432Z,27.60
2022-12-08T22:06:14.624Z,27.98
2022-12-08T22:08:43.375Z,26.83
2022-12-08T22:11:13.560Z,26.60
2022-12-08T22:13:42.011Z,28.92
2022-12-08T22:16:11.684Z,24.88
2022-12-08T22:18:38.894Z,24.83
2022-12-08T22:21:24.195Z,23.48
2022-12-08T22:23:50.947Z,25.77
2022-12-08T22:26:17.900Z,25.45
2022-12-08T22:28:44.838Z,23.95
2022-12-08T22:31:20.979Z,23.52
2022-12-08T22:33:49.408Z,23.27
2022-12-08T22:36:23.895Z,25.05
2022-12-08T22:38:51.917Z,23.23
2022-12-08T22:41:19.448Z,25.65
2022-12-08T22:43:47.369Z,33.92
2022-12-08T22:46:25.874Z,35.55
2022-12-08T22:48:54.171Z,38.10
2022-12-08T22:51:21.507Z,38.38
2022-12-08T22:53:48.943Z,36.90
2022-12-08T22:56:17.258Z,31.15
2022-12-08T22:58:44.497Z,31.77
2022-12-08T23:01:26.197Z,28.40
2022-12-08T23:03:53.495Z,26.40
2022-12-08T23:06:20.992Z,26.08
2022-12-08T23:08:48.386Z,24.75
2022-12-08T23:11:15.441Z,25.90
2022-12-08T23:13:42.305Z,24.70
2022-12-08T23:16:10.923Z,26.33
2022-12-08T23:18:41.370Z,26.10
2022-12-08T23:21:11.583Z,24.67
2022-12-08T23:23:38.896Z,26.30
2022-12-08T23:26:15.882Z,24.75
2022-12-08T23:28:42.680Z,23.65
2022-12-08T23:31:09.526Z,23.95
2022-12-08T23:33:36.336Z,23.80
2022-12-08T23:36:03.216Z,24.88
2022-12-08T23:38:29.980Z,24.40
2022-12-08T23:41:04.321Z,25.58
2022-12-08T23:43:31.297Z,25.27
2022-12-08T23:45:58.024Z,24.48
2022-12-08T23:48:25.653Z,23.63
2022-12-08T23:50:52.504Z,21.73
2022-12-08T23:53:19.495Z,27.40
2022-12-08T23:55:46.429Z,31.30
2022-12-08T23:58:13.594Z,31.08
